Etusivu
METAR-TAF:

METAR-TAF

Lentoasemat :

Umiujaq, Quebec, Kanada

Leveyspiiri: 56-32N, Pituuspiiri: 076-31W, korkeus merenpinnasta: 71 m

Tämänhetkinen sää

Tämä raportti tehtiin 34 minuuttia sitten, kello 15.00 UTC
Tuuli 12 kn etelästä/lounaasta
Lämpötila 3°C
Kosteus 70%
Ilmanpaine 1021 hPa
Näkyvyys: 24.1 km
Muutamia pilviä 2000 ft:n korkeudessa
Hajonneita pilviä 4500 ft:n korkeudessa
Hajonneita pilviä 8000 ft:n korkeudessa
Hajonneita pilviä 26000 ft:n korkeudessa
heikkoja vesikuuroja

METAR: CYMU 221500Z 20012KT 15SM -SHRA FEW020 BKN045 BKN080 BKN260 03/M02 A3015 RMK SC1SC6AC1CI1 SC TR AC TR CI TR SLP218

Aika: 11:34 (15:34 UTC)


TAF: puuttuu

Säähavainnot ja -ennusteet yli 4000 lentoasemalta (METAR- ja TAF-raportit).

Käytössä olevat sääasemat on merkitty karttaan keltaisilla ja punaisilla pisteillä.

Aseta hiiri pisteen päälle nähdäksesi sääaseman nimen.

Klikkaa sitten nähdäksesi säähavainnot ja -ennusteet.

Kartan vaihtaminen: klikkaa mustalla rastilla varustettuja vihreitä pisteitä, niin voit zoomata sisään; viivalla varustettua vihreää pistettä, niin voit zoomata ulos tai vihreitä nuolia, niin pääset viereisille kartoille.


METAR-TAF: